createdAt,value
2022-11-04T00:00:26.842Z,12.10
2022-11-04T00:02:04.814Z,12.10
2022-11-04T00:03:36.460Z,12.10
2022-11-04T00:05:08.327Z,12.10
2022-11-04T00:06:40.623Z,12.00
2022-11-04T00:08:24.295Z,12.00
2022-11-04T00:09:56.006Z,12.10
2022-11-04T00:11:46.966Z,12.00
2022-11-04T00:13:18.570Z,12.00
2022-11-04T00:14:50.237Z,12.00
2022-11-04T00:16:40.602Z,12.00
2022-11-04T00:18:12.222Z,12.00
2022-11-04T00:20:02.386Z,12.00
2022-11-04T00:21:53.081Z,12.00
2022-11-04T00:23:43.502Z,12.00
2022-11-04T00:25:34.004Z,12.00
2022-11-04T00:27:24.243Z,12.00
2022-11-04T00:28:55.887Z,11.90
2022-11-04T00:30:27.544Z,12.00
2022-11-04T00:32:17.960Z,11.90
2022-11-04T00:33:51.536Z,12.00
2022-11-04T00:35:23.338Z,12.00
2022-11-04T00:36:54.943Z,12.00
2022-11-04T00:38:26.643Z,11.90
2022-11-04T00:39:58.260Z,12.00
2022-11-04T00:41:30.645Z,12.00
2022-11-04T00:43:02.281Z,12.00
2022-11-04T00:44:33.956Z,12.00
2022-11-04T00:46:05.751Z,12.00
2022-11-04T00:47:37.372Z,12.00
2022-11-04T00:49:08.998Z,12.00
2022-11-04T00:50:41.766Z,12.00
2022-11-04T00:52:13.389Z,12.00
2022-11-04T00:53:45.454Z,11.90
2022-11-04T00:55:17.077Z,11.90
2022-11-04T00:56:48.852Z,11.90
2022-11-04T00:58:20.436Z,11.90
2022-11-04T00:59:52.100Z,12.00
2022-11-04T01:01:23.868Z,12.00
2022-11-04T01:02:56.664Z,11.90
2022-11-04T01:04:29.157Z,11.90
2022-11-04T01:06:00.797Z,11.90
2022-11-04T01:07:32.453Z,11.90
2022-11-04T01:09:08.174Z,11.90
2022-11-04T01:10:44.504Z,11.90
2022-11-04T01:12:16.880Z,11.90
2022-11-04T01:13:51.397Z,11.90
2022-11-04T01:15:23.297Z,11.90
2022-11-04T01:16:54.992Z,11.90
2022-11-04T01:18:26.769Z,11.80
2022-11-04T01:19:58.417Z,11.90
2022-11-04T01:21:30.497Z,11.80
2022-11-04T01:23:02.150Z,11.90
2022-11-04T01:24:33.824Z,11.80
2022-11-04T01:26:07.470Z,11.80
2022-11-04T01:27:39.265Z,11.80
2022-11-04T01:29:10.904Z,11.80
2022-11-04T01:30:42.546Z,11.80
2022-11-04T01:32:14.174Z,11.80
2022-11-04T01:33:45.806Z,11.90
2022-11-04T01:35:17.934Z,11.80
2022-11-04T01:36:49.541Z,11.80
2022-11-04T01:38:21.165Z,11.80
2022-11-04T01:39:52.788Z,11.80
2022-11-04T01:41:29.473Z,11.80
2022-11-04T01:43:01.135Z,11.80
2022-11-04T01:44:41.906Z,11.80
2022-11-04T01:46:25.911Z,11.80
2022-11-04T01:48:05.954Z,11.70
2022-11-04T01:49:43.280Z,11.70
2022-11-04T01:51:15.930Z,11.70
2022-11-04T01:52:52.786Z,11.70
2022-11-04T01:54:24.926Z,11.70
2022-11-04T01:55:59.214Z,11.70
2022-11-04T01:57:35.799Z,11.70
2022-11-04T01:59:12.155Z,11.70
2022-11-04T02:00:44.496Z,11.70
2022-11-04T02:02:16.478Z,11.70
2022-11-04T02:03:52.954Z,11.60
2022-11-04T02:05:24.665Z,11.70
2022-11-04T02:07:08.687Z,11.70
2022-11-04T02:08:41.975Z,11.70
2022-11-04T02:10:13.970Z,11.70
2022-11-04T02:12:04.007Z,11.70
2022-11-04T02:13:36.962Z,11.60
2022-11-04T02:15:09.163Z,11.60
2022-11-04T02:16:45.111Z,11.60
2022-11-04T02:18:25.856Z,11.60
2022-11-04T02:20:15.441Z,11.60
2022-11-04T02:22:11.408Z,11.60
2022-11-04T02:24:21.255Z,11.60
2022-11-04T02:26:26.922Z,11.60
2022-11-04T02:28:17.614Z,11.60
2022-11-04T02:30:07.893Z,11.60
2022-11-04T02:32:02.254Z,11.60
2022-11-04T02:34:06.454Z,11.50
2022-11-04T02:35:51.303Z,11.50
2022-11-04T02:37:55.985Z,11.50
2022-11-04T02:39:52.670Z,11.50
2022-11-04T02:41:39.918Z,11.50
2022-11-04T02:43:36.464Z,11.40
2022-11-04T02:45:26.646Z,11.40
2022-11-04T02:47:08.434Z,11.40
2022-11-04T02:48:58.061Z,11.40
2022-11-04T02:50:49.671Z,11.40
2022-11-04T02:52:40.910Z,11.40
2022-11-04T02:54:47.583Z,11.40
2022-11-04T02:56:22.406Z,11.40
2022-11-04T02:57:56.458Z,11.30
2022-11-04T03:00:00.059Z,11.30
2022-11-04T03:01:36.548Z,11.40
2022-11-04T03:03:22.250Z,11.30
2022-11-04T03:04:55.727Z,11.30
2022-11-04T03:06:29.431Z,11.30
2022-11-04T03:08:05.649Z,11.30
2022-11-04T03:09:40.895Z,11.20
2022-11-04T03:11:16.093Z,11.20
2022-11-04T03:12:58.279Z,11.20
2022-11-04T03:14:37.303Z,11.20
2022-11-04T03:16:17.340Z,11.20
2022-11-04T03:18:07.789Z,11.10
2022-11-04T03:19:58.159Z,11.10
2022-11-04T03:21:34.200Z,11.10
2022-11-04T03:23:06.844Z,11.10
2022-11-04T03:24:39.886Z,11.10
2022-11-04T03:26:20.891Z,11.10
2022-11-04T03:28:01.500Z,11.10
2022-11-04T03:30:00.719Z,11.10
2022-11-04T03:31:47.479Z,11.10
2022-11-04T03:33:38.459Z,11.10
2022-11-04T03:35:12.302Z,11.10
2022-11-04T03:36:44.232Z,11.10
2022-11-04T03:38:16.445Z,11.10
2022-11-04T03:39:48.112Z,11.10
2022-11-04T03:41:32.755Z,11.10
2022-11-04T03:43:14.210Z,11.10
2022-11-04T03:44:56.552Z,11.00
2022-11-04T03:46:28.642Z,11.00
2022-11-04T03:48:00.836Z,11.10
2022-11-04T03:49:32.484Z,11.10
2022-11-04T03:51:04.228Z,11.00
2022-11-04T03:52:36.811Z,11.10
2022-11-04T03:54:09.281Z,11.00
2022-11-04T03:56:08.053Z,11.10
2022-11-04T03:57:52.161Z,11.10
2022-11-04T03:59:50.934Z,11.10
2022-11-04T04:01:42.194Z,11.10
2022-11-04T04:03:29.170Z,11.00
2022-11-04T04:05:06.276Z,11.10
2022-11-04T04:06:39.345Z,11.00
2022-11-04T04:08:37.633Z,11.00
2022-11-04T04:10:35.871Z,11.10
2022-11-04T04:12:27.315Z,11.10
2022-11-04T04:14:41.588Z,11.10
2022-11-04T04:16:39.456Z,11.10
2022-11-04T04:18:15.213Z,11.00
2022-11-04T04:19:53.977Z,11.10
2022-11-04T04:21:45.321Z,11.00
2022-11-04T04:23:41.808Z,11.00
2022-11-04T04:25:34.593Z,11.00
2022-11-04T04:27:25.068Z,11.10
2022-11-04T04:28:58.953Z,11.00
2022-11-04T04:30:31.107Z,11.00
2022-11-04T04:32:05.137Z,11.00
2022-11-04T04:33:37.633Z,11.00
2022-11-04T04:35:28.958Z,11.00
2022-11-04T04:37:25.377Z,10.90
2022-11-04T04:39:15.841Z,10.90
2022-11-04T04:41:14.413Z,10.90
2022-11-04T04:43:05.006Z,10.90
2022-11-04T04:44:55.475Z,10.90
2022-11-04T04:46:29.497Z,10.90
2022-11-04T04:48:01.151Z,10.90
2022-11-04T04:49:35.092Z,10.80
2022-11-04T04:51:07.530Z,10.80
2022-11-04T04:52:42.134Z,10.80
2022-11-04T04:54:14.820Z,10.80
2022-11-04T04:55:46.457Z,10.70
2022-11-04T04:57:18.081Z,10.80
2022-11-04T04:58:49.687Z,10.70
2022-11-04T05:00:21.446Z,10.70
2022-11-04T05:01:53.462Z,10.70
2022-11-04T05:03:25.536Z,10.70
2022-11-04T05:04:59.450Z,10.60
2022-11-04T05:06:31.383Z,10.60
2022-11-04T05:08:07.767Z,10.60
2022-11-04T05:09:40.045Z,10.60
2022-11-04T05:11:12.246Z,10.60
2022-11-04T05:13:03.288Z,10.60
2022-11-04T05:14:35.023Z,10.60
2022-11-04T05:16:10.158Z,10.50
2022-11-04T05:17:41.956Z,10.50
2022-11-04T05:19:13.583Z,10.50
2022-11-04T05:20:45.410Z,10.50
2022-11-04T05:22:17.130Z,10.50
2022-11-04T05:23:48.750Z,10.50
2022-11-04T05:25:20.442Z,10.50
2022-11-04T05:26:52.118Z,10.50
2022-11-04T05:28:23.747Z,10.50
2022-11-04T05:29:55.408Z,10.40
2022-11-04T05:31:27.583Z,10.50
2022-11-04T05:33:03.425Z,10.40
2022-11-04T05:34:36.780Z,10.40
2022-11-04T05:36:14.670Z,10.50
2022-11-04T05:37:46.407Z,10.50
2022-11-04T05:39:18.223Z,10.40
2022-11-04T05:40:49.824Z,10.40
2022-11-04T05:42:21.467Z,10.40
2022-11-04T05:44:01.428Z,10.40
2022-11-04T05:45:33.027Z,10.40
2022-11-04T05:47:04.720Z,10.40
2022-11-04T05:48:40.291Z,10.40
2022-11-04T05:50:12.420Z,10.40
2022-11-04T05:51:44.532Z,10.30
2022-11-04T05:53:16.263Z,10.30
2022-11-04T05:54:48.078Z,10.30
2022-11-04T05:56:19.796Z,10.30
2022-11-04T05:57:51.796Z,10.30
2022-11-04T05:59:23.401Z,10.30
2022-11-04T06:00:54.994Z,10.30
2022-11-04T06:02:27.002Z,10.30
2022-11-04T06:04:00.809Z,10.30
2022-11-04T06:05:32.668Z,10.30
2022-11-04T06:07:04.361Z,10.30
2022-11-04T06:08:37.292Z,10.30
2022-11-04T06:10:11.131Z,10.30
2022-11-04T06:11:43.680Z,10.30
2022-11-04T06:13:15.345Z,10.30
2022-11-04T06:14:47.197Z,10.30
2022-11-04T06:16:18.936Z,10.30
2022-11-04T06:17:50.634Z,10.30
2022-11-04T06:19:22.319Z,10.30
2022-11-04T06:21:12.635Z,10.30
2022-11-04T06:22:44.280Z,10.30
2022-11-04T06:24:15.913Z,10.30
2022-11-04T06:25:47.718Z,10.30
2022-11-04T06:27:19.399Z,10.40
2022-11-04T06:28:51.253Z,10.40
2022-11-04T06:30:23.595Z,10.40
2022-11-04T06:31:55.370Z,10.40
2022-11-04T06:33:31.373Z,10.40
2022-11-04T06:35:07.745Z,10.40
2022-11-04T06:36:39.542Z,10.40
2022-11-04T06:38:11.404Z,10.40
2022-11-04T06:39:43.241Z,10.40
2022-11-04T06:41:17.119Z,10.40
2022-11-04T06:42:50.694Z,10.40
2022-11-04T06:44:22.532Z,10.40
2022-11-04T06:45:59.247Z,10.30
2022-11-04T06:47:30.869Z,10.40
2022-11-04T06:49:03.650Z,10.40
2022-11-04T06:50:35.372Z,10.40
2022-11-04T06:52:07.007Z,10.40
2022-11-04T06:53:38.639Z,10.40
2022-11-04T06:55:10.358Z,10.40
2022-11-04T06:56:42.732Z,10.40
2022-11-04T06:58:14.407Z,10.40
2022-11-04T06:59:46.075Z,10.40
2022-11-04T07:01:22.122Z,10.50
2022-11-04T07:02:54.348Z,10.40
2022-11-04T07:04:26.223Z,10.40
2022-11-04T07:05:57.834Z,10.40
2022-11-04T07:07:29.647Z,10.50
2022-11-04T07:09:03.315Z,10.40
2022-11-04T07:10:35.203Z,10.40
2022-11-04T07:12:06.891Z,10.40
2022-11-04T07:13:38.659Z,10.40
2022-11-04T07:15:10.672Z,10.50
2022-11-04T07:16:42.411Z,10.50
2022-11-04T07:18:16.710Z,10.40
2022-11-04T07:19:48.387Z,10.40
2022-11-04T07:21:20.161Z,10.40
2022-11-04T07:22:54.557Z,10.50
2022-11-04T07:24:26.179Z,10.50
2022-11-04T07:26:01.993Z,10.50
2022-11-04T07:27:33.659Z,10.50
2022-11-04T07:29:06.562Z,10.50
2022-11-04T07:30:38.207Z,10.50
2022-11-04T07:32:09.965Z,10.50
2022-11-04T07:33:41.775Z,10.50
2022-11-04T07:35:13.952Z,10.50
2022-11-04T07:36:45.703Z,10.50
2022-11-04T07:38:17.348Z,10.50
2022-11-04T07:39:48.996Z,10.50
2022-11-04T07:41:21.396Z,10.50
2022-11-04T07:42:53.103Z,10.60
2022-11-04T07:44:35.758Z,10.60
2022-11-04T07:46:10.789Z,10.60
2022-11-04T07:47:42.447Z,10.60
2022-11-04T07:49:14.157Z,10.60
2022-11-04T07:50:45.835Z,10.60
2022-11-04T07:52:17.599Z,10.60
2022-11-04T07:53:49.321Z,10.60
2022-11-04T07:55:21.210Z,10.60
2022-11-04T07:56:52.867Z,10.60
2022-11-04T07:58:25.535Z,10.60
2022-11-04T07:59:57.180Z,10.60
2022-11-04T08:01:28.848Z,10.60
2022-11-04T08:03:01.548Z,10.60
2022-11-04T08:04:33.488Z,10.60
2022-11-04T08:06:07.410Z,10.60
2022-11-04T08:07:39.193Z,10.60
2022-11-04T08:09:10.952Z,10.60
2022-11-04T08:10:42.670Z,10.70
2022-11-04T08:12:14.366Z,10.70
2022-11-04T08:13:46.961Z,10.70
2022-11-04T08:15:18.864Z,10.70
2022-11-04T08:16:51.321Z,10.70
2022-11-04T08:18:23.327Z,10.70
2022-11-04T08:19:54.993Z,10.70
2022-11-04T08:21:26.708Z,10.70
2022-11-04T08:23:00.061Z,10.70
2022-11-04T08:24:31.711Z,10.70
2022-11-04T08:26:11.217Z,10.70
2022-11-04T08:27:42.869Z,10.70
2022-11-04T08:29:14.711Z,10.70
2022-11-04T08:31:11.784Z,10.70
2022-11-04T08:32:44.321Z,10.70
2022-11-04T08:34:18.225Z,10.70
2022-11-04T08:35:50.293Z,10.70
2022-11-04T08:37:22.065Z,10.70
2022-11-04T08:38:54.936Z,10.70
2022-11-04T08:40:26.581Z,10.80
2022-11-04T08:41:58.622Z,10.70
2022-11-04T08:43:30.878Z,10.70
2022-11-04T08:45:02.543Z,10.70
2022-11-04T08:46:38.026Z,10.70
2022-11-04T08:48:10.573Z,10.80
2022-11-04T08:49:42.681Z,10.80
2022-11-04T08:51:19.077Z,10.70
2022-11-04T08:52:50.760Z,10.80
2022-11-04T08:54:23.801Z,10.80
2022-11-04T08:55:55.717Z,10.70
2022-11-04T08:57:27.546Z,10.80
2022-11-04T08:59:00.445Z,10.80
2022-11-04T09:00:32.998Z,10.80
2022-11-04T09:02:04.882Z,10.70
2022-11-04T09:03:38.668Z,10.80
2022-11-04T09:05:10.579Z,10.80
2022-11-04T09:06:43.764Z,10.80
2022-11-04T09:08:17.347Z,10.80
2022-11-04T09:09:49.150Z,10.80
2022-11-04T09:11:21.115Z,10.80
2022-11-04T09:12:53.111Z,10.80
2022-11-04T09:14:24.786Z,10.80
2022-11-04T09:15:56.467Z,10.80
2022-11-04T09:17:28.328Z,10.80
2022-11-04T09:19:00.571Z,10.80
2022-11-04T09:20:32.493Z,10.80
2022-11-04T09:22:04.175Z,10.80
2022-11-04T09:23:35.903Z,10.80
2022-11-04T09:25:07.938Z,10.80
2022-11-04T09:26:39.779Z,10.80
2022-11-04T09:28:11.482Z,10.80
2022-11-04T09:29:43.160Z,10.80
2022-11-04T09:31:18.286Z,10.80
2022-11-04T09:32:52.692Z,10.80
2022-11-04T09:34:24.746Z,10.80
2022-11-04T09:35:57.670Z,10.80
2022-11-04T09:37:29.347Z,10.80
2022-11-04T09:39:00.983Z,10.90
2022-11-04T09:40:35.245Z,10.80
2022-11-04T09:42:32.425Z,10.80
2022-11-04T09:44:16.093Z,10.80
2022-11-04T09:45:47.743Z,10.80
2022-11-04T09:47:22.189Z,10.80
2022-11-04T09:49:00.054Z,10.80
2022-11-04T09:50:42.480Z,10.80
2022-11-04T09:52:39.212Z,10.90
2022-11-04T09:54:23.084Z,10.80
2022-11-04T09:55:58.331Z,10.80
2022-11-04T09:57:30.300Z,10.80
2022-11-04T09:59:06.210Z,10.90
2022-11-04T10:00:39.116Z,10.90
2022-11-04T10:02:44.673Z,10.90
2022-11-04T10:04:44.549Z,10.90
2022-11-04T10:06:25.077Z,10.90
2022-11-04T10:08:26.072Z,10.90
2022-11-04T10:10:08.472Z,10.90
2022-11-04T10:12:24.386Z,10.90
2022-11-04T10:14:18.074Z,10.90
2022-11-04T10:16:18.780Z,10.90
2022-11-04T10:17:55.936Z,10.90
2022-11-04T10:19:33.581Z,10.90
2022-11-04T10:21:14.522Z,10.90
2022-11-04T10:22:59.684Z,10.90
2022-11-04T10:24:42.122Z,11.00
2022-11-04T10:26:19.326Z,11.00
2022-11-04T10:27:52.285Z,11.00
2022-11-04T10:29:30.237Z,11.00
2022-11-04T10:31:03.920Z,11.00
2022-11-04T10:32:43.734Z,11.00
2022-11-04T10:34:36.613Z,11.10
2022-11-04T10:36:10.559Z,11.10
2022-11-04T10:37:42.393Z,11.10
2022-11-04T10:39:39.650Z,11.20
2022-11-04T10:41:21.056Z,11.20
2022-11-04T10:42:53.885Z,11.20
2022-11-04T10:44:32.666Z,11.20
2022-11-04T10:46:18.606Z,11.30
2022-11-04T10:47:59.226Z,11.30
2022-11-04T10:51:50.426Z,11.30
2022-11-04T10:53:31.862Z,11.30
2022-11-04T10:55:14.712Z,11.30
2022-11-04T10:56:55.072Z,11.40
2022-11-04T10:58:32.128Z,11.40
2022-11-04T11:00:06.006Z,11.40
2022-11-04T11:01:38.061Z,11.40
2022-11-04T11:03:31.540Z,11.40
2022-11-04T11:05:19.499Z,11.50
2022-11-04T11:06:52.986Z,11.50
2022-11-04T11:08:29.738Z,11.50
2022-11-04T11:10:24.143Z,11.50
2022-11-04T11:13:07.071Z,11.50
2022-11-04T11:15:27.875Z,11.50
2022-11-04T11:17:56.995Z,11.50
2022-11-04T11:20:05.789Z,11.50
2022-11-04T11:21:57.299Z,11.50
2022-11-04T11:23:51.222Z,11.50
2022-11-04T11:25:35.078Z,11.50
2022-11-04T11:27:15.048Z,11.40
2022-11-04T11:29:02.136Z,11.50
2022-11-04T11:30:46.999Z,11.50
2022-11-04T11:32:43.276Z,11.50
2022-11-04T11:35:41.210Z,11.40
2022-11-04T11:38:10.410Z,11.50
2022-11-04T11:39:52.372Z,11.50
2022-11-04T11:41:53.341Z,11.50
2022-11-04T11:43:49.370Z,11.50
2022-11-04T11:46:19.546Z,11.50
2022-11-04T11:48:53.369Z,11.50
2022-11-04T11:51:21.920Z,11.50
2022-11-04T11:53:47.373Z,11.40
2022-11-04T11:56:13.868Z,11.40
2022-11-04T12:01:25.568Z,11.50
2022-11-04T12:10:49.704Z,11.50
2022-11-04T12:12:27.737Z,11.50
2022-11-04T12:14:31.769Z,11.50
2022-11-04T12:16:12.059Z,11.50
2022-11-04T12:18:05.589Z,11.50
2022-11-04T12:20:15.210Z,11.50
2022-11-04T12:22:46.287Z,11.50
2022-11-04T12:25:23.946Z,11.50
2022-11-04T12:27:41.328Z,11.50
2022-11-04T12:30:17.782Z,11.50
2022-11-04T12:32:23.739Z,11.50
2022-11-04T12:34:14.248Z,11.50
2022-11-04T12:36:28.256Z,11.60
2022-11-04T12:38:09.180Z,11.60
2022-11-04T12:39:48.888Z,11.60
2022-11-04T12:41:58.787Z,11.50
2022-11-04T12:43:44.828Z,11.60
2022-11-04T12:45:35.087Z,11.60
2022-11-04T12:47:15.271Z,11.60
2022-11-04T12:48:57.762Z,11.60
2022-11-04T12:50:42.525Z,11.60
2022-11-04T12:52:31.994Z,11.60
2022-11-04T12:54:18.021Z,11.60
2022-11-04T12:56:11.010Z,11.70
2022-11-04T12:57:54.993Z,11.70
2022-11-04T12:59:49.000Z,11.60
2022-11-04T13:01:39.020Z,11.60
2022-11-04T13:03:20.387Z,11.70
2022-11-04T13:05:05.586Z,11.70
2022-11-04T13:06:53.796Z,11.70
2022-11-04T13:08:38.996Z,11.70
2022-11-04T13:10:26.997Z,11.70
2022-11-04T13:12:09.938Z,11.70
2022-11-04T13:13:41.682Z,11.70
2022-11-04T13:15:28.776Z,11.80
2022-11-04T13:17:10.890Z,11.80
2022-11-04T13:18:45.619Z,11.80
2022-11-04T13:20:44.405Z,11.90
2022-11-04T13:22:21.176Z,11.90
2022-11-04T13:24:04.898Z,11.90
2022-11-04T13:25:41.555Z,11.90
2022-11-04T13:27:21.530Z,11.90
2022-11-04T13:29:21.211Z,11.90
2022-11-04T13:31:17.300Z,11.90
2022-11-04T13:32:51.958Z,11.90
2022-11-04T13:34:45.774Z,11.90
2022-11-04T13:36:36.195Z,11.90
2022-11-04T13:38:16.565Z,11.90
2022-11-04T13:39:57.582Z,11.90
2022-11-04T13:41:40.759Z,11.90
2022-11-04T13:43:41.666Z,11.90
2022-11-04T13:45:18.687Z,11.90
2022-11-04T13:46:54.517Z,11.90
2022-11-04T13:48:29.517Z,11.90
2022-11-04T13:50:01.263Z,11.90
2022-11-04T13:51:44.398Z,11.90
2022-11-04T13:53:16.170Z,11.90
2022-11-04T13:54:52.752Z,11.90
2022-11-04T13:56:35.422Z,11.90
2022-11-04T13:58:07.565Z,12.00
2022-11-04T13:59:39.870Z,11.90
2022-11-04T14:01:13.443Z,11.90
2022-11-04T14:02:46.163Z,11.90
2022-11-04T14:04:30.580Z,11.90
2022-11-04T14:06:10.903Z,11.90
2022-11-04T14:08:00.882Z,11.90
2022-11-04T14:09:51.168Z,11.90
2022-11-04T14:11:22.875Z,11.90
2022-11-04T14:12:54.542Z,11.90
2022-11-04T14:14:26.166Z,11.90
2022-11-04T14:16:10.942Z,11.90
2022-11-04T14:17:42.590Z,11.90
2022-11-04T14:19:48.247Z,11.90
2022-11-04T14:21:25.759Z,11.90
2022-11-04T14:23:03.267Z,11.90
2022-11-04T14:24:34.957Z,11.90
2022-11-04T14:26:15.224Z,11.90
2022-11-04T14:28:09.935Z,11.90
2022-11-04T14:29:50.173Z,11.90
2022-11-04T14:31:47.740Z,11.90
2022-11-04T14:33:39.340Z,11.90
2022-11-04T14:35:18.199Z,11.80
2022-11-04T14:36:59.718Z,11.90
2022-11-04T14:38:35.111Z,11.80
2022-11-04T14:40:22.500Z,11.90
2022-11-04T14:42:00.225Z,11.90
2022-11-04T14:43:35.874Z,11.80
2022-11-04T14:45:12.434Z,11.90
2022-11-04T14:46:47.746Z,11.80
2022-11-04T14:48:20.672Z,11.80
2022-11-04T14:49:58.350Z,11.90
2022-11-04T14:51:32.838Z,11.80
2022-11-04T14:53:06.138Z,11.80
2022-11-04T14:54:38.396Z,11.90
2022-11-04T14:56:23.757Z,11.90
2022-11-04T14:58:20.268Z,11.80
2022-11-04T14:59:53.696Z,11.80
2022-11-04T15:01:34.249Z,11.80
2022-11-04T15:04:08.639Z,11.80
2022-11-04T15:05:26.645Z,11.90
2022-11-04T15:07:01.616Z,11.90
2022-11-04T15:08:44.279Z,11.80
2022-11-04T15:10:28.170Z,11.80
2022-11-04T15:12:27.585Z,11.80
2022-11-04T15:14:00.188Z,11.80
2022-11-04T15:15:48.554Z,11.80
2022-11-04T15:17:22.852Z,11.80
2022-11-04T15:18:57.127Z,11.80
2022-11-04T15:20:31.201Z,11.80
2022-11-04T15:22:05.253Z,11.80
2022-11-04T15:23:42.383Z,11.90
2022-11-04T15:25:14.339Z,11.80
2022-11-04T15:26:51.590Z,11.80
2022-11-04T15:28:28.139Z,11.90
2022-11-04T15:30:02.766Z,11.80
2022-11-04T15:31:36.534Z,11.80
2022-11-04T15:33:17.322Z,11.80
2022-11-04T15:34:49.957Z,11.80
2022-11-04T15:36:22.992Z,11.80
2022-11-04T15:37:56.672Z,11.80
2022-11-04T15:39:32.791Z,11.80
2022-11-04T15:41:24.424Z,11.80
2022-11-04T15:42:56.915Z,11.80
2022-11-04T15:44:31.481Z,11.80
2022-11-04T15:46:04.710Z,11.80
2022-11-04T15:47:36.381Z,11.80
2022-11-04T15:49:24.312Z,11.80
2022-11-04T15:51:10.609Z,11.80
2022-11-04T15:52:51.033Z,11.70
2022-11-04T15:54:29.290Z,11.80
2022-11-04T15:56:01.099Z,11.80
2022-11-04T15:57:38.116Z,11.80
2022-11-04T15:59:16.788Z,11.70
2022-11-04T16:00:53.732Z,11.70
2022-11-04T16:02:33.896Z,11.70
2022-11-04T16:04:06.332Z,11.70
2022-11-04T16:05:38.132Z,11.70
2022-11-04T16:07:09.793Z,11.70
2022-11-04T16:08:41.638Z,11.70
2022-11-04T16:10:31.607Z,11.70
2022-11-04T16:12:04.087Z,11.70
2022-11-04T16:13:35.776Z,11.70
2022-11-04T16:15:31.731Z,11.70
2022-11-04T16:17:03.528Z,11.60
2022-11-04T16:18:41.914Z,11.60
2022-11-04T16:20:17.568Z,11.60
2022-11-04T16:22:08.925Z,11.60
2022-11-04T16:23:46.135Z,11.60
2022-11-04T16:25:22.888Z,11.60
2022-11-04T16:26:56.807Z,11.60
2022-11-04T16:28:30.568Z,11.60
2022-11-04T16:30:16.581Z,11.60
2022-11-04T16:32:15.025Z,11.60
2022-11-04T16:33:46.761Z,11.60
2022-11-04T16:35:21.305Z,11.60
2022-11-04T16:36:53.236Z,11.60
2022-11-04T16:38:25.089Z,11.60
2022-11-04T16:39:56.905Z,11.60
2022-11-04T16:41:29.541Z,11.60
2022-11-04T16:43:01.321Z,11.60
2022-11-04T16:44:40.863Z,11.60
2022-11-04T16:46:17.471Z,11.60
2022-11-04T16:47:49.628Z,11.70
2022-11-04T16:49:22.404Z,11.60
2022-11-04T16:50:54.708Z,11.70
2022-11-04T16:52:27.546Z,11.60
2022-11-04T16:53:59.296Z,11.60
2022-11-04T16:55:32.284Z,11.60
2022-11-04T16:57:06.795Z,11.60
2022-11-04T16:58:38.744Z,11.60
2022-11-04T17:00:19.926Z,11.60
2022-11-04T17:01:51.762Z,11.70
2022-11-04T17:03:25.812Z,11.70
2022-11-04T17:04:58.110Z,11.70
2022-11-04T17:06:30.096Z,11.60
2022-11-04T17:08:05.248Z,11.60
2022-11-04T17:09:38.121Z,11.60
2022-11-04T17:11:10.877Z,11.60
2022-11-04T17:12:43.645Z,11.60
2022-11-04T17:14:16.443Z,11.60
2022-11-04T17:15:48.664Z,11.60
2022-11-04T17:17:20.370Z,11.60
2022-11-04T17:18:52.052Z,11.60
2022-11-04T17:20:23.997Z,11.60
2022-11-04T17:21:56.061Z,11.60
2022-11-04T17:23:30.884Z,11.60
2022-11-04T17:25:03.092Z,11.60
2022-11-04T17:26:34.730Z,11.60
2022-11-04T17:28:06.711Z,11.60
2022-11-04T17:29:39.222Z,11.60
2022-11-04T17:31:19.302Z,11.60
2022-11-04T17:32:51.338Z,11.60
2022-11-04T17:34:25.833Z,11.60
2022-11-04T17:35:57.526Z,11.60
2022-11-04T17:37:29.217Z,11.60
2022-11-04T17:39:00.974Z,11.60
2022-11-04T17:40:32.677Z,11.60
2022-11-04T17:42:23.066Z,11.60
2022-11-04T17:44:00.829Z,11.60
2022-11-04T17:45:33.112Z,11.60
2022-11-04T17:47:04.782Z,11.60
2022-11-04T17:48:36.459Z,11.60
2022-11-04T17:50:08.465Z,11.60
2022-11-04T17:51:43.080Z,11.60
2022-11-04T17:53:14.716Z,11.60
2022-11-04T17:54:46.396Z,11.60
2022-11-04T17:56:20.330Z,11.60
2022-11-04T17:57:51.988Z,11.70
2022-11-04T17:59:24.823Z,11.60
2022-11-04T18:00:58.697Z,11.60
2022-11-04T18:02:32.957Z,11.60
2022-11-04T18:04:05.164Z,11.60
2022-11-04T18:05:36.783Z,11.60
2022-11-04T18:07:08.399Z,11.60
2022-11-04T18:08:40.317Z,11.60
2022-11-04T18:10:11.981Z,11.60
2022-11-04T18:12:03.820Z,11.60
2022-11-04T18:13:36.232Z,11.60
2022-11-04T18:15:13.639Z,11.60
2022-11-04T18:16:48.078Z,11.60
2022-11-04T18:18:19.912Z,11.60
2022-11-04T18:19:52.430Z,11.60
2022-11-04T18:21:24.257Z,11.60
2022-11-04T18:22:55.895Z,11.60
2022-11-04T18:24:28.113Z,11.60
2022-11-04T18:26:00.104Z,11.60
2022-11-04T18:27:31.841Z,11.60
2022-11-04T18:29:04.424Z,11.60
2022-11-04T18:30:39.893Z,11.60
2022-11-04T18:32:11.613Z,11.60
2022-11-04T18:33:43.209Z,11.60
2022-11-04T18:35:14.859Z,11.60
2022-11-04T18:36:48.344Z,11.60
2022-11-04T18:38:20.012Z,11.60
2022-11-04T18:39:51.684Z,11.60
2022-11-04T18:41:23.476Z,11.60
2022-11-04T18:42:55.154Z,11.60
2022-11-04T18:44:26.816Z,11.60
2022-11-04T18:45:58.653Z,11.60
2022-11-04T18:47:30.400Z,11.60
2022-11-04T18:49:02.057Z,11.60
2022-11-04T18:50:34.213Z,11.60
2022-11-04T18:52:06.066Z,11.60
2022-11-04T18:53:38.210Z,11.60
2022-11-04T18:55:10.081Z,11.60
2022-11-04T18:56:42.253Z,11.60
2022-11-04T18:58:13.888Z,11.60
2022-11-04T18:59:46.233Z,11.60
2022-11-04T19:01:28.002Z,11.60
2022-11-04T19:02:59.977Z,11.60
2022-11-04T19:04:32.670Z,11.60
2022-11-04T19:06:09.430Z,11.60
2022-11-04T19:07:41.887Z,11.60
2022-11-04T19:11:19.877Z,11.60
2022-11-04T19:13:09.955Z,11.60
2022-11-04T19:14:41.688Z,11.60
2022-11-04T19:16:13.517Z,11.60
2022-11-04T19:17:47.485Z,11.60
2022-11-04T19:19:19.274Z,11.50
2022-11-04T19:20:51.009Z,11.60
2022-11-04T19:22:22.623Z,11.50
2022-11-04T19:23:59.795Z,11.50
2022-11-04T19:25:31.601Z,11.50
2022-11-04T19:27:04.306Z,11.50
2022-11-04T19:28:47.596Z,11.50
2022-11-04T19:30:20.178Z,11.50
2022-11-04T19:31:53.823Z,11.50
2022-11-04T19:33:25.564Z,11.60
2022-11-04T19:34:57.185Z,11.50
2022-11-04T19:36:29.284Z,11.50
2022-11-04T19:38:01.711Z,11.50
2022-11-04T19:39:33.345Z,11.50
2022-11-04T19:41:07.156Z,11.50
2022-11-04T19:42:57.416Z,11.50
2022-11-04T19:44:31.441Z,11.50
2022-11-04T19:46:04.790Z,11.50
2022-11-04T19:47:36.610Z,11.50
2022-11-04T19:49:08.731Z,11.50
2022-11-04T19:50:42.448Z,11.50
2022-11-04T19:52:14.274Z,11.40
2022-11-04T19:53:45.904Z,11.40
2022-11-04T19:55:17.600Z,11.40
2022-11-04T19:56:49.265Z,11.40
2022-11-04T19:58:23.025Z,11.40
2022-11-04T19:59:54.702Z,11.40
2022-11-04T20:01:26.722Z,11.40
2022-11-04T20:02:59.237Z,11.40
2022-11-04T20:04:30.991Z,11.40
2022-11-04T20:06:03.867Z,11.40
2022-11-04T20:07:35.579Z,11.40
2022-11-04T20:09:10.985Z,11.40
2022-11-04T20:10:43.534Z,11.40
2022-11-04T20:12:34.067Z,11.40
2022-11-04T20:14:08.200Z,11.40
2022-11-04T20:15:39.985Z,11.30
2022-11-04T20:17:11.691Z,11.30
2022-11-04T20:18:44.812Z,11.40
2022-11-04T20:20:16.519Z,11.30
2022-11-04T20:21:48.219Z,11.30
2022-11-04T20:23:19.983Z,11.30
2022-11-04T20:24:51.613Z,11.30
2022-11-04T20:26:24.311Z,11.30
2022-11-04T20:27:56.022Z,11.30
2022-11-04T20:29:27.646Z,11.30
2022-11-04T20:30:59.334Z,11.30
2022-11-04T20:32:32.728Z,11.30
2022-11-04T20:34:07.828Z,11.20
2022-11-04T20:35:40.477Z,11.20
2022-11-04T20:37:12.478Z,11.20
2022-11-04T20:38:46.980Z,11.20
2022-11-04T20:40:18.775Z,11.20
2022-11-04T20:41:50.571Z,11.20
2022-11-04T20:43:22.256Z,11.20
2022-11-04T20:44:53.918Z,11.20
2022-11-04T20:46:34.574Z,11.20
2022-11-04T20:48:06.455Z,11.20
2022-11-04T20:49:38.372Z,11.20
2022-11-04T20:51:19.153Z,11.20
2022-11-04T20:52:51.389Z,11.10
2022-11-04T20:54:23.242Z,11.10
2022-11-04T20:55:54.978Z,11.10
2022-11-04T20:57:26.773Z,11.10
2022-11-04T20:59:00.033Z,11.00
2022-11-04T21:00:31.933Z,11.00
2022-11-04T21:02:03.868Z,11.00
2022-11-04T21:03:35.773Z,10.90
2022-11-04T21:05:07.709Z,10.90
2022-11-04T21:06:39.805Z,10.90
2022-11-04T21:08:11.691Z,10.90
2022-11-04T21:09:44.100Z,10.90
2022-11-04T21:11:16.036Z,10.90
2022-11-04T21:12:47.657Z,10.90
2022-11-04T21:14:19.803Z,10.80
2022-11-04T21:15:53.714Z,10.90
2022-11-04T21:17:25.445Z,10.80
2022-11-04T21:18:57.782Z,10.80
2022-11-04T21:20:29.780Z,10.80
2022-11-04T21:22:01.629Z,10.80